Gratkorn, Austria
Current Conditions -  °F | °C
As of 6:20 PM on Wednesday 28 Jan 2015 (Local Time) from LOWG Reporting Station
Few Clouds Few Clouds  
Wind Chill: 28°   Ceiling: Unl
Heat Index: 34°   Visibility: 6mi
Dew Point: 23°   Wind: 7mph
Humidity: 65%   Direction: 150°SSE
Pressure: 29.91"   Gusts: NA
Location:  47.13°N, 15.35°E
Report Text: LOWG 281620Z 15006KT 9999 FEW070 01/M05 Q1013 R17/1///95 NOSIG
Loading
Personal Weather Stations






























Interactive Weather Map New forecast layout! Learn more

10-Day Weather Forecast

Advertisements
Track Severe Weather on mobile